createdAt,value
2019-02-25T00:00:28.885Z,25.65
2019-02-25T00:01:31.811Z,25.65
2019-02-25T00:02:33.435Z,25.62
2019-02-25T00:03:34.754Z,25.65
2019-02-25T00:04:35.884Z,25.68
2019-02-25T00:05:37.499Z,25.64
2019-02-25T00:06:38.616Z,25.64
2019-02-25T00:07:41.994Z,25.61
2019-02-25T00:08:43.103Z,25.67
2019-02-25T00:09:44.420Z,25.72
2019-02-25T00:10:45.535Z,25.68
2019-02-25T00:11:46.830Z,25.65
2019-02-25T00:12:48.176Z,25.70
2019-02-25T00:13:49.296Z,25.75
2019-02-25T00:14:50.423Z,25.72
2019-02-25T00:15:51.533Z,25.69
2019-02-25T00:16:52.666Z,25.67
2019-02-25T00:17:53.781Z,25.76
2019-02-25T00:18:54.898Z,25.71
2019-02-25T00:19:56.056Z,25.70
2019-02-25T00:20:57.170Z,25.74
2019-02-25T00:21:58.285Z,25.74
2019-02-25T00:22:59.407Z,25.80
2019-02-25T00:24:00.630Z,25.77
2019-02-25T00:25:01.765Z,25.75
2019-02-25T00:26:02.968Z,25.75
2019-02-25T00:27:04.076Z,25.68
2019-02-25T00:28:05.188Z,25.69
2019-02-25T00:29:06.305Z,25.72
2019-02-25T00:30:11.792Z,25.75
2019-02-25T00:31:12.902Z,25.75
2019-02-25T00:32:14.017Z,25.77
2019-02-25T00:33:15.237Z,25.75
2019-02-25T00:34:16.396Z,25.78
2019-02-25T00:35:17.522Z,25.77
2019-02-25T00:36:18.637Z,25.82
2019-02-25T00:37:19.759Z,25.93
2019-02-25T00:38:20.878Z,25.90
2019-02-25T00:39:21.996Z,25.89
2019-02-25T00:40:23.162Z,25.84
2019-02-25T00:41:24.277Z,25.79
2019-02-25T00:42:25.398Z,25.68
2019-02-25T00:43:26.509Z,25.74
2019-02-25T00:44:27.624Z,25.90
2019-02-25T00:45:28.781Z,25.92
2019-02-25T00:46:29.901Z,25.95
2019-02-25T00:47:31.124Z,25.96
2019-02-25T00:48:32.269Z,25.93
2019-02-25T00:49:33.387Z,25.91
2019-02-25T00:50:34.510Z,25.82
2019-02-25T00:51:35.621Z,25.89
2019-02-25T00:52:36.747Z,25.83
2019-02-25T00:53:37.852Z,25.93
2019-02-25T00:54:38.966Z,25.90
2019-02-25T00:55:40.133Z,25.90
2019-02-25T00:56:41.249Z,25.91
2019-02-25T00:57:42.360Z,25.87
2019-02-25T00:58:43.476Z,25.90
2019-02-25T00:59:44.702Z,25.87
2019-02-25T01:00:45.829Z,25.82
2019-02-25T01:01:46.957Z,25.92
2019-02-25T01:02:48.376Z,25.88
2019-02-25T01:03:49.630Z,25.74
2019-02-25T01:04:50.716Z,25.88
2019-02-25T01:05:51.841Z,25.84
2019-02-25T01:06:52.994Z,25.93
2019-02-25T01:07:54.077Z,25.92
2019-02-25T01:08:55.298Z,26.00
2019-02-25T01:09:56.668Z,26.02
2019-02-25T01:10:57.817Z,25.96
2019-02-25T01:11:58.931Z,25.93
2019-02-25T01:13:00.055Z,25.97
2019-02-25T01:14:01.168Z,25.97
2019-02-25T01:15:03.880Z,26.04
2019-02-25T01:16:05.111Z,26.14
2019-02-25T01:17:06.233Z,26.06
2019-02-25T01:18:07.343Z,26.08
2019-02-25T01:19:08.457Z,26.07
2019-02-25T01:20:11.578Z,26.09
2019-02-25T01:21:12.700Z,26.07
2019-02-25T01:22:13.812Z,25.92
2019-02-25T01:23:15.023Z,26.05
2019-02-25T01:24:16.143Z,26.04
2019-02-25T01:25:17.253Z,26.02
2019-02-25T01:26:18.381Z,25.98
2019-02-25T01:27:19.603Z,25.95
2019-02-25T01:28:20.711Z,26.00
2019-02-25T01:29:21.828Z,25.99
2019-02-25T01:30:23.548Z,26.03
2019-02-25T01:31:24.681Z,25.95
2019-02-25T01:32:25.796Z,25.93
2019-02-25T01:33:26.908Z,25.93
2019-02-25T01:34:28.032Z,25.95
2019-02-25T01:35:29.160Z,25.92
2019-02-25T01:36:30.312Z,25.98
2019-02-25T01:37:31.427Z,25.96
2019-02-25T01:38:32.540Z,25.99
2019-02-25T01:39:33.656Z,25.97
2019-02-25T01:40:34.941Z,25.95
2019-02-25T01:41:36.280Z,26.00
2019-02-25T01:42:37.396Z,26.04
2019-02-25T01:43:38.509Z,25.97
2019-02-25T01:44:39.622Z,25.98
2019-02-25T01:45:40.736Z,25.98
2019-02-25T01:46:41.889Z,26.02
2019-02-25T01:47:43.101Z,26.00
2019-02-25T01:48:44.220Z,25.96
2019-02-25T01:49:45.342Z,25.99
2019-02-25T01:50:46.457Z,25.97
2019-02-25T01:51:47.588Z,26.00
2019-02-25T01:52:48.700Z,25.93
2019-02-25T01:53:49.816Z,25.87
2019-02-25T01:54:50.937Z,25.83
2019-02-25T01:55:52.048Z,25.89
2019-02-25T01:56:53.198Z,25.94
2019-02-25T01:57:54.317Z,25.92
2019-02-25T01:58:55.423Z,25.95
2019-02-25T01:59:56.540Z,25.99
2019-02-25T02:00:57.656Z,26.03
2019-02-25T02:01:58.957Z,26.09
2019-02-25T02:03:00.080Z,26.09
2019-02-25T02:04:01.191Z,26.12
2019-02-25T02:05:02.608Z,26.09
2019-02-25T02:06:03.732Z,26.06
2019-02-25T02:07:04.859Z,26.01
2019-02-25T02:08:05.975Z,26.03
2019-02-25T02:09:07.895Z,26.05
2019-02-25T02:10:13.508Z,26.08
2019-02-25T02:11:14.743Z,26.14
2019-02-25T02:12:15.896Z,26.11
2019-02-25T02:13:17.008Z,26.09
2019-02-25T02:14:18.120Z,26.15
2019-02-25T02:15:20.244Z,26.17
2019-02-25T02:16:21.346Z,26.13
2019-02-25T02:17:22.482Z,26.15
2019-02-25T02:18:23.597Z,26.18
2019-02-25T02:19:24.715Z,26.16
2019-02-25T02:20:25.837Z,26.14
2019-02-25T02:21:26.944Z,26.08
2019-02-25T02:22:28.100Z,26.09
2019-02-25T02:23:29.216Z,26.12
2019-02-25T02:24:30.330Z,26.24
2019-02-25T02:25:31.564Z,26.21
2019-02-25T02:26:32.772Z,26.14
2019-02-25T02:27:33.929Z,26.10
2019-02-25T02:28:35.040Z,26.08
2019-02-25T02:29:36.155Z,26.14
2019-02-25T02:30:37.356Z,26.12
2019-02-25T02:31:38.470Z,26.13
2019-02-25T02:32:39.599Z,26.16
2019-02-25T02:33:40.823Z,26.19
2019-02-25T02:34:42.042Z,26.13
2019-02-25T02:35:43.184Z,26.12
2019-02-25T02:36:44.388Z,26.17
2019-02-25T02:37:45.517Z,26.19
2019-02-25T02:38:46.852Z,26.09
2019-02-25T02:39:47.960Z,26.09
2019-02-25T02:40:49.073Z,26.09
2019-02-25T02:42:13.676Z,26.13
2019-02-25T02:43:14.811Z,26.18
2019-02-25T02:44:15.946Z,26.16
2019-02-25T02:45:20.750Z,26.19
2019-02-25T02:46:25.466Z,26.16
2019-02-25T02:47:35.603Z,26.15
2019-02-25T02:48:40.330Z,26.14
2019-02-25T02:49:41.551Z,26.14
2019-02-25T02:50:42.773Z,26.18
2019-02-25T02:51:43.892Z,26.19
2019-02-25T02:52:45.113Z,26.21
2019-02-25T02:53:46.247Z,26.19
2019-02-25T02:54:47.365Z,26.18
2019-02-25T02:55:48.518Z,26.19
2019-02-25T02:56:49.640Z,26.14
2019-02-25T02:57:50.771Z,26.18
2019-02-25T02:58:51.998Z,26.19
2019-02-25T02:59:53.117Z,26.22
2019-02-25T03:00:54.233Z,26.21
2019-02-25T03:01:55.350Z,26.24
2019-02-25T03:02:56.582Z,26.27
2019-02-25T03:03:57.705Z,26.22
2019-02-25T03:04:58.821Z,26.22
2019-02-25T03:06:00.039Z,26.29
2019-02-25T03:07:01.160Z,26.34
2019-02-25T03:08:02.378Z,26.29
2019-02-25T03:09:04.399Z,26.26
2019-02-25T03:10:08.618Z,26.26
2019-02-25T03:11:09.728Z,26.20
2019-02-25T03:12:10.950Z,26.26
2019-02-25T03:13:12.066Z,26.24
2019-02-25T03:14:13.189Z,26.25
2019-02-25T03:15:17.001Z,26.19
2019-02-25T03:16:18.116Z,26.15
2019-02-25T03:17:19.336Z,26.19
2019-02-25T03:18:20.452Z,26.20
2019-02-25T03:19:21.585Z,26.22
2019-02-25T03:20:22.702Z,26.19
2019-02-25T03:21:23.818Z,26.22
2019-02-25T03:22:24.928Z,26.25
2019-02-25T03:23:26.063Z,26.26
2019-02-25T03:24:27.206Z,26.18
2019-02-25T03:25:28.328Z,26.17
2019-02-25T03:26:29.437Z,26.21
2019-02-25T03:27:30.559Z,26.25
2019-02-25T03:28:31.680Z,26.28
2019-02-25T03:29:32.971Z,26.29
2019-02-25T03:30:34.082Z,26.23
2019-02-25T03:31:35.199Z,26.24
2019-02-25T03:32:36.312Z,26.23
2019-02-25T03:33:37.427Z,26.24
2019-02-25T03:34:38.555Z,26.26
2019-02-25T03:35:39.682Z,26.24
2019-02-25T03:36:40.901Z,26.29
2019-02-25T03:37:42.311Z,26.25
2019-02-25T03:38:43.432Z,26.25
2019-02-25T03:39:44.657Z,26.25
2019-02-25T03:40:45.780Z,26.31
2019-02-25T03:41:46.880Z,26.31
2019-02-25T03:42:48.187Z,26.27
2019-02-25T03:43:49.299Z,26.29
2019-02-25T03:44:50.440Z,26.30
2019-02-25T03:45:51.565Z,26.28
2019-02-25T03:46:52.684Z,26.32
2019-02-25T03:47:53.896Z,26.37
2019-02-25T03:48:55.115Z,26.31
2019-02-25T03:49:56.274Z,26.32
2019-02-25T03:50:57.497Z,26.31
2019-02-25T03:51:58.610Z,26.31
2019-02-25T03:52:59.725Z,26.26
2019-02-25T03:54:00.846Z,26.27
2019-02-25T03:55:03.072Z,26.18
2019-02-25T03:56:04.285Z,26.21
2019-02-25T03:57:05.408Z,26.21
2019-02-25T03:58:06.512Z,26.24
2019-02-25T03:59:07.634Z,26.22
2019-02-25T04:00:15.119Z,26.25
2019-02-25T04:01:16.328Z,26.21
2019-02-25T04:02:17.646Z,26.22
2019-02-25T04:03:18.872Z,26.21
2019-02-25T04:04:19.986Z,26.26
2019-02-25T04:05:21.117Z,26.29
2019-02-25T04:06:22.341Z,26.31
2019-02-25T04:07:23.548Z,26.35
2019-02-25T04:08:24.658Z,26.31
2019-02-25T04:09:25.877Z,26.35
2019-02-25T04:10:27.002Z,26.35
2019-02-25T04:11:28.124Z,26.35
2019-02-25T04:12:29.230Z,26.36
2019-02-25T04:13:30.348Z,26.43
2019-02-25T04:14:31.456Z,26.40
2019-02-25T04:15:35.514Z,26.36
2019-02-25T04:16:36.915Z,26.34
2019-02-25T04:17:38.689Z,26.37
2019-02-25T04:18:39.785Z,26.36
2019-02-25T04:19:40.908Z,26.38
2019-02-25T04:20:42.041Z,26.28
2019-02-25T04:21:43.150Z,26.34
2019-02-25T04:22:44.267Z,26.37
2019-02-25T04:23:45.380Z,26.35
2019-02-25T04:24:46.597Z,26.32
2019-02-25T04:25:47.749Z,26.36
2019-02-25T04:26:48.968Z,26.35
2019-02-25T04:27:50.081Z,26.36
2019-02-25T04:28:51.301Z,26.36
2019-02-25T04:29:52.420Z,26.40
2019-02-25T04:30:53.550Z,26.38
2019-02-25T04:31:54.779Z,26.44
2019-02-25T04:32:55.915Z,26.45
2019-02-25T04:33:57.004Z,26.40
2019-02-25T04:34:58.123Z,26.39
2019-02-25T04:35:59.246Z,26.39
2019-02-25T04:37:00.376Z,26.39
2019-02-25T04:38:02.917Z,26.42
2019-02-25T04:39:04.699Z,26.38
2019-02-25T04:40:08.609Z,26.41
2019-02-25T04:41:09.763Z,26.36
2019-02-25T04:42:10.881Z,26.37
2019-02-25T04:43:12.000Z,26.37
2019-02-25T04:44:13.141Z,26.34
2019-02-25T04:45:19.159Z,26.39
2019-02-25T04:46:20.287Z,26.34
2019-02-25T04:47:21.401Z,26.38
2019-02-25T04:48:22.517Z,26.33
2019-02-25T04:49:23.635Z,26.44
2019-02-25T04:50:24.756Z,26.39
2019-02-25T04:51:25.888Z,26.40
2019-02-25T04:52:27.005Z,26.43
2019-02-25T04:53:28.220Z,26.45
2019-02-25T04:55:30.298Z,26.42
2019-02-25T04:56:31.430Z,26.40
2019-02-25T04:57:32.654Z,26.42
2019-02-25T04:58:33.869Z,26.47
2019-02-25T04:59:34.994Z,26.47
2019-02-25T05:00:36.214Z,26.39
2019-02-25T05:01:37.349Z,26.42
2019-02-25T05:02:38.469Z,26.43
2019-02-25T05:03:39.597Z,26.48
2019-02-25T05:04:40.712Z,26.38
2019-02-25T05:05:41.825Z,26.38
2019-02-25T05:06:43.054Z,26.39
2019-02-25T05:08:45.127Z,26.42
2019-02-25T05:09:46.345Z,26.46
2019-02-25T05:10:47.463Z,26.48
2019-02-25T05:11:48.821Z,26.50
2019-02-25T05:12:54.764Z,26.51
2019-02-25T05:13:55.896Z,26.52
2019-02-25T05:14:57.105Z,26.54
2019-02-25T05:15:58.338Z,26.54
2019-02-25T05:16:59.468Z,26.57
2019-02-25T05:18:00.591Z,26.57
2019-02-25T05:19:01.707Z,26.56
2019-02-25T05:20:04.224Z,26.56
2019-02-25T05:21:05.337Z,26.60
2019-02-25T05:22:06.495Z,26.60
2019-02-25T05:23:07.654Z,26.61
2019-02-25T05:24:08.724Z,26.53
2019-02-25T05:25:10.846Z,26.52
2019-02-25T05:26:12.057Z,26.51
2019-02-25T05:27:13.187Z,26.57
2019-02-25T05:28:14.309Z,26.58
2019-02-25T05:29:15.516Z,26.58
2019-02-25T05:30:16.629Z,26.55
2019-02-25T05:31:17.928Z,26.56
2019-02-25T05:32:19.087Z,26.52
2019-02-25T05:33:20.211Z,26.55
2019-02-25T05:34:21.325Z,26.53
2019-02-25T05:35:22.437Z,26.51
2019-02-25T05:36:23.557Z,26.58
2019-02-25T05:37:24.681Z,26.61
2019-02-25T05:38:25.799Z,26.63
2019-02-25T05:39:26.920Z,26.64
2019-02-25T05:40:28.133Z,26.59
2019-02-25T05:41:29.251Z,26.60
2019-02-25T05:42:30.378Z,26.60
2019-02-25T05:43:31.489Z,26.57
2019-02-25T05:44:32.612Z,26.57
2019-02-25T05:45:33.726Z,26.59
2019-02-25T05:46:34.832Z,26.55
2019-02-25T05:47:36.056Z,26.54
2019-02-25T05:48:37.170Z,26.55
2019-02-25T05:49:38.288Z,26.51
2019-02-25T05:50:39.581Z,26.54
2019-02-25T05:51:40.697Z,26.52
2019-02-25T05:52:41.812Z,26.57
2019-02-25T05:53:42.927Z,26.54
2019-02-25T05:54:44.084Z,26.56
2019-02-25T05:55:45.205Z,26.53
2019-02-25T05:56:46.326Z,26.54
2019-02-25T05:57:47.462Z,26.55
2019-02-25T05:58:48.583Z,26.58
2019-02-25T05:59:49.694Z,26.56
2019-02-25T06:00:50.911Z,26.56
2019-02-25T06:01:52.028Z,26.58
2019-02-25T06:02:53.332Z,26.59
2019-02-25T06:03:54.457Z,26.57
2019-02-25T06:04:55.569Z,26.61
2019-02-25T06:05:56.685Z,26.64
2019-02-25T06:06:57.801Z,26.66
2019-02-25T06:07:58.941Z,26.65
2019-02-25T06:09:00.059Z,26.67
2019-02-25T06:10:01.165Z,26.63
2019-02-25T06:11:02.274Z,26.57
2019-02-25T06:12:03.391Z,26.59
2019-02-25T06:13:04.549Z,26.54
2019-02-25T06:14:05.665Z,26.50
2019-02-25T06:15:18.910Z,26.49
2019-02-25T06:16:20.020Z,26.47
2019-02-25T06:17:21.164Z,26.39
2019-02-25T06:18:22.296Z,26.34
2019-02-25T06:19:23.418Z,26.29
2019-02-25T06:20:24.535Z,26.26
2019-02-25T06:21:26.208Z,26.22
2019-02-25T06:22:27.332Z,26.21
2019-02-25T06:23:28.505Z,26.15
2019-02-25T06:24:29.621Z,26.07
2019-02-25T06:25:30.766Z,25.99
2019-02-25T06:26:31.860Z,25.92
2019-02-25T06:27:33.081Z,25.81
2019-02-25T06:28:34.368Z,25.75
2019-02-25T06:29:35.481Z,25.69
2019-02-25T06:30:36.593Z,25.59
2019-02-25T06:31:37.713Z,25.55
2019-02-25T06:32:38.839Z,25.48
2019-02-25T06:33:39.978Z,25.37
2019-02-25T06:34:41.093Z,25.30
2019-02-25T06:35:42.206Z,25.26
2019-02-25T06:36:43.326Z,25.16
2019-02-25T06:37:44.546Z,25.09
2019-02-25T06:38:45.700Z,24.98
2019-02-25T06:39:46.818Z,24.94
2019-02-25T06:40:47.929Z,24.85
2019-02-25T06:41:49.043Z,24.79
2019-02-25T06:42:50.157Z,24.78
2019-02-25T06:43:51.393Z,24.71
2019-02-25T06:44:52.508Z,24.63
2019-02-25T06:45:53.617Z,24.55
2019-02-25T06:46:54.727Z,24.53
2019-02-25T06:47:55.848Z,24.49
2019-02-25T06:48:56.978Z,24.44
2019-02-25T06:49:58.093Z,24.40
2019-02-25T06:50:59.210Z,24.31
2019-02-25T06:52:00.323Z,24.23
2019-02-25T06:53:01.438Z,24.21
2019-02-25T06:54:02.599Z,24.19
2019-02-25T06:55:09.567Z,24.11
2019-02-25T06:56:10.680Z,24.09
2019-02-25T06:57:11.797Z,24.10
2019-02-25T06:58:12.913Z,24.08
2019-02-25T06:59:14.044Z,24.08
2019-02-25T07:00:20.878Z,24.03
2019-02-25T07:01:21.991Z,24.02
2019-02-25T07:02:23.207Z,24.01
2019-02-25T07:03:24.432Z,23.97
2019-02-25T07:04:27.494Z,23.96
2019-02-25T07:05:33.028Z,23.95
2019-02-25T07:06:36.046Z,23.95
2019-02-25T07:07:51.171Z,23.81
2019-02-25T07:09:02.985Z,23.89
2019-02-25T07:10:07.716Z,23.91
2019-02-25T07:11:10.745Z,23.87
2019-02-25T07:12:16.531Z,23.91
2019-02-25T07:13:22.325Z,23.89
2019-02-25T07:14:31.092Z,23.87
2019-02-25T07:15:50.522Z,23.92
2019-02-25T07:17:08.386Z,23.89
2019-02-25T07:18:14.179Z,23.91
2019-02-25T07:19:17.196Z,23.89
2019-02-25T07:20:22.992Z,23.92
2019-02-25T07:21:26.030Z,23.90
2019-02-25T07:22:47.165Z,23.90
2019-02-25T07:24:07.137Z,23.93
2019-02-25T07:25:10.154Z,23.94
2019-02-25T07:26:31.384Z,23.93
2019-02-25T07:27:50.791Z,23.94
2019-02-25T07:29:10.161Z,23.93
2019-02-25T07:30:18.710Z,23.95
2019-02-25T07:31:38.414Z,23.95
2019-02-25T07:32:44.178Z,23.95
2019-02-25T07:33:55.781Z,24.00
2019-02-25T07:34:58.803Z,24.02
2019-02-25T07:36:01.821Z,24.01
2019-02-25T07:37:17.001Z,24.07
2019-02-25T07:38:39.741Z,24.06
2019-02-25T07:39:52.129Z,24.03
2019-02-25T07:41:11.775Z,24.00
2019-02-25T07:42:17.322Z,24.01
2019-02-25T07:43:20.354Z,24.06
2019-02-25T07:44:32.229Z,24.07
2019-02-25T07:45:51.797Z,24.04
2019-02-25T07:46:57.548Z,24.07
2019-02-25T07:48:03.355Z,24.05
2019-02-25T07:49:06.384Z,24.04
2019-02-25T07:50:26.180Z,24.06
2019-02-25T07:51:34.781Z,24.08
2019-02-25T07:52:43.354Z,24.08
2019-02-25T07:54:04.442Z,24.05
2019-02-25T07:55:20.892Z,24.07
2019-02-25T07:56:40.432Z,24.04
2019-02-25T07:57:46.064Z,24.03
2019-02-25T07:59:00.856Z,24.00
2019-02-25T08:00:07.186Z,24.01
2019-02-25T08:01:10.201Z,24.06
2019-02-25T08:02:16.023Z,24.06
2019-02-25T08:03:19.044Z,24.05
2019-02-25T08:04:24.874Z,24.05
2019-02-25T08:05:27.898Z,24.05
2019-02-25T08:06:30.914Z,24.03
2019-02-25T08:07:33.932Z,24.05
2019-02-25T08:08:53.716Z,24.03
2019-02-25T08:09:59.351Z,24.02
2019-02-25T08:11:18.756Z,24.03
2019-02-25T08:12:24.276Z,23.97
2019-02-25T08:13:29.872Z,23.98
2019-02-25T08:14:41.708Z,24.01
2019-02-25T08:15:56.566Z,24.01
2019-02-25T08:16:59.585Z,24.01
2019-02-25T08:18:11.262Z,24.03
2019-02-25T08:19:20.053Z,24.03
2019-02-25T08:20:28.684Z,24.01
2019-02-25T08:21:48.016Z,24.04
2019-02-25T08:23:07.377Z,24.03
2019-02-25T08:24:12.914Z,24.03
2019-02-25T08:25:32.827Z,24.06
2019-02-25T08:26:35.834Z,24.09
2019-02-25T08:27:41.522Z,24.10
2019-02-25T08:28:44.548Z,24.12
2019-02-25T08:30:03.979Z,24.13
2019-02-25T08:31:23.357Z,24.11
2019-02-25T08:32:29.431Z,24.12
2019-02-25T08:33:48.999Z,24.09
2019-02-25T08:35:06.957Z,24.06
2019-02-25T08:36:13.589Z,24.06
2019-02-25T08:37:20.215Z,24.05
2019-02-25T08:38:28.868Z,24.10
2019-02-25T08:39:32.376Z,24.12
2019-02-25T08:40:39.028Z,24.06
2019-02-25T08:41:54.397Z,24.04
2019-02-25T08:43:05.992Z,24.06
2019-02-25T08:44:09.008Z,24.08
2019-02-25T08:45:12.028Z,24.10
2019-02-25T08:46:15.064Z,24.09
2019-02-25T08:47:23.652Z,24.13
2019-02-25T08:48:35.823Z,24.19
2019-02-25T08:49:38.832Z,24.18
2019-02-25T08:50:40.067Z,24.13
2019-02-25T08:51:41.192Z,24.18
2019-02-25T08:52:42.406Z,24.14
2019-02-25T08:53:43.516Z,24.10
2019-02-25T08:54:44.729Z,24.15
2019-02-25T08:55:45.845Z,24.15
2019-02-25T08:56:46.993Z,24.20
2019-02-25T08:57:48.104Z,24.24
2019-02-25T08:58:49.212Z,24.24
2019-02-25T08:59:50.329Z,24.22
2019-02-25T09:00:51.441Z,24.21
2019-02-25T09:01:52.689Z,24.22
2019-02-25T09:02:53.804Z,24.30
2019-02-25T09:03:54.920Z,24.32
2019-02-25T09:04:56.143Z,24.27
2019-02-25T09:05:57.262Z,24.28
2019-02-25T09:06:58.560Z,24.28
2019-02-25T09:07:59.670Z,24.25
2019-02-25T09:09:00.783Z,24.25
2019-02-25T09:10:03.199Z,24.25
2019-02-25T09:11:13.707Z,24.24
2019-02-25T09:12:07.456Z,24.32
2019-02-25T09:13:08.573Z,24.30
2019-02-25T09:14:09.682Z,24.28
2019-02-25T09:15:12.699Z,24.32
2019-02-25T09:16:13.814Z,24.36
2019-02-25T09:17:16.110Z,24.36
2019-02-25T09:18:17.397Z,24.37
2019-02-25T09:19:18.513Z,24.35
2019-02-25T09:20:19.633Z,24.29
2019-02-25T09:21:20.750Z,24.29
2019-02-25T09:22:21.902Z,24.32
2019-02-25T09:23:23.017Z,24.34
2019-02-25T09:24:24.187Z,24.35
2019-02-25T09:25:25.350Z,24.38
2019-02-25T09:26:26.470Z,24.33
2019-02-25T09:27:28.157Z,24.33
2019-02-25T09:28:29.269Z,24.35
2019-02-25T09:29:30.385Z,24.38
2019-02-25T09:30:31.504Z,24.40
2019-02-25T09:31:32.622Z,24.37
2019-02-25T09:32:33.749Z,24.40
2019-02-25T09:33:34.865Z,24.41
2019-02-25T09:34:35.985Z,24.35
2019-02-25T09:35:37.102Z,24.36
2019-02-25T09:36:38.217Z,24.39
2019-02-25T09:37:39.453Z,24.39
2019-02-25T09:38:40.695Z,24.39
2019-02-25T09:39:41.940Z,24.38
2019-02-25T09:40:43.165Z,24.40
2019-02-25T09:41:44.403Z,24.40
2019-02-25T09:42:45.725Z,24.40
2019-02-25T09:43:46.841Z,24.40
2019-02-25T09:44:47.971Z,24.42
2019-02-25T09:45:49.120Z,24.43
2019-02-25T09:46:50.255Z,24.44
2019-02-25T09:47:51.361Z,24.41
2019-02-25T09:48:52.475Z,24.40
2019-02-25T09:49:53.702Z,24.43
2019-02-25T09:50:54.815Z,24.37
2019-02-25T09:51:55.930Z,24.40
2019-02-25T09:52:57.185Z,24.42
2019-02-25T09:53:58.298Z,24.36
2019-02-25T09:54:59.517Z,24.35
2019-02-25T09:56:00.632Z,24.38
2019-02-25T09:57:01.854Z,24.39
2019-02-25T09:58:03.112Z,24.38
2019-02-25T09:59:04.237Z,24.36
2019-02-25T10:00:12.139Z,24.34
2019-02-25T10:01:13.258Z,24.36
2019-02-25T10:02:14.377Z,24.36
2019-02-25T10:03:15.565Z,24.35
2019-02-25T10:04:16.700Z,24.33
2019-02-25T10:05:17.822Z,24.30
2019-02-25T10:06:18.942Z,24.30
2019-02-25T10:07:20.074Z,24.31
2019-02-25T10:08:21.324Z,24.31
2019-02-25T10:09:29.646Z,24.36
2019-02-25T10:10:25.457Z,24.33
2019-02-25T10:11:26.569Z,24.33
2019-02-25T10:12:27.680Z,24.33
2019-02-25T10:13:28.817Z,24.29
2019-02-25T10:14:29.935Z,24.29
2019-02-25T10:15:31.068Z,24.28
2019-02-25T10:16:32.290Z,24.26
2019-02-25T10:17:33.414Z,24.27
2019-02-25T10:18:34.541Z,24.26
2019-02-25T10:19:35.655Z,24.27
2019-02-25T10:20:36.875Z,24.25
2019-02-25T10:21:37.988Z,24.23
2019-02-25T10:22:39.106Z,24.30
2019-02-25T10:23:40.546Z,24.25
2019-02-25T10:24:41.682Z,24.25
2019-02-25T10:25:42.795Z,24.26
2019-02-25T10:26:43.917Z,24.28
2019-02-25T10:27:45.030Z,24.24
2019-02-25T10:28:46.160Z,24.26
2019-02-25T10:29:47.281Z,24.21
2019-02-25T10:30:52.760Z,24.22
2019-02-25T10:31:51.409Z,24.23
2019-02-25T10:32:52.528Z,24.20
2019-02-25T10:33:53.765Z,24.26
2019-02-25T10:34:54.884Z,24.23
2019-02-25T10:35:55.987Z,24.23
2019-02-25T10:36:57.214Z,24.24
2019-02-25T10:37:58.328Z,24.21
2019-02-25T10:38:59.461Z,24.24
2019-02-25T10:40:00.577Z,24.22
2019-02-25T10:41:01.690Z,24.24
2019-02-25T10:42:02.902Z,24.27
2019-02-25T10:43:04.012Z,24.26
2019-02-25T10:44:06.524Z,24.24
2019-02-25T10:45:14.290Z,24.27
2019-02-25T10:46:17.557Z,24.23
2019-02-25T10:47:19.901Z,24.26
2019-02-25T10:48:23.527Z,24.27
2019-02-25T10:49:26.677Z,24.25
2019-02-25T10:50:28.816Z,24.30
2019-02-25T10:51:31.033Z,24.31
2019-02-25T10:52:32.144Z,24.32
2019-02-25T10:53:33.265Z,24.33
2019-02-25T10:54:34.478Z,24.37
2019-02-25T10:55:46.812Z,24.33
2019-02-25T10:56:49.812Z,24.32
2019-02-25T10:57:52.754Z,24.30
2019-02-25T10:58:54.134Z,24.28
2019-02-25T10:59:55.283Z,24.30
2019-02-25T11:00:56.416Z,24.33
2019-02-25T11:01:57.528Z,24.35
2019-02-25T11:02:58.752Z,24.38
2019-02-25T11:03:59.972Z,24.40
2019-02-25T11:05:01.244Z,24.43
2019-02-25T11:06:03.307Z,24.41
2019-02-25T11:07:05.611Z,24.44
2019-02-25T11:08:11.513Z,24.41
2019-02-25T11:09:15.771Z,24.46
2019-02-25T11:10:22.432Z,24.66
2019-02-25T11:11:27.165Z,24.75
2019-02-25T11:12:30.017Z,24.61
2019-02-25T11:13:31.972Z,24.53
2019-02-25T11:14:35.931Z,24.51
2019-02-25T11:15:39.657Z,24.51
2019-02-25T11:16:41.932Z,24.46
2019-02-25T11:17:45.407Z,24.46
2019-02-25T11:18:47.077Z,24.47
2019-02-25T11:19:48.193Z,24.45
2019-02-25T11:20:49.441Z,24.44
2019-02-25T11:21:50.656Z,24.44
2019-02-25T11:22:51.768Z,24.44
2019-02-25T11:23:53.397Z,24.42
2019-02-25T11:24:55.550Z,24.43
2019-02-25T11:25:58.421Z,24.41
2019-02-25T11:27:01.553Z,24.47
2019-02-25T11:28:05.397Z,24.43
2019-02-25T11:29:08.154Z,24.43
2019-02-25T11:30:18.933Z,24.43
2019-02-25T11:31:24.700Z,24.44
2019-02-25T11:32:27.816Z,24.45
2019-02-25T11:33:30.242Z,24.46
2019-02-25T11:34:33.602Z,24.44
2019-02-25T11:35:36.702Z,24.45
2019-02-25T11:36:38.354Z,24.46
2019-02-25T11:37:39.462Z,24.43
2019-02-25T11:38:40.582Z,24.46
2019-02-25T11:39:41.692Z,24.50
2019-02-25T11:40:42.807Z,24.44
2019-02-25T11:41:43.935Z,24.46
2019-02-25T11:42:45.052Z,24.47
2019-02-25T11:43:48.101Z,24.46
2019-02-25T11:44:49.293Z,24.49
2019-02-25T11:45:50.412Z,24.48
2019-02-25T11:46:51.565Z,24.47
2019-02-25T11:47:52.814Z,24.48
2019-02-25T11:48:53.908Z,24.47
2019-02-25T11:49:55.022Z,24.44
2019-02-25T11:50:56.240Z,24.44
2019-02-25T11:51:57.378Z,24.41
2019-02-25T11:52:58.499Z,24.43
2019-02-25T11:53:59.718Z,24.43
2019-02-25T11:55:00.833Z,24.42
2019-02-25T11:56:01.953Z,24.43
2019-02-25T11:57:03.080Z,24.45
2019-02-25T11:58:04.205Z,24.45
2019-02-25T11:59:05.317Z,24.43
2019-02-25T12:00:16.245Z,24.45
2019-02-25T12:01:17.473Z,24.47
2019-02-25T12:02:25.553Z,24.47
2019-02-25T12:03:24.552Z,24.46
2019-02-25T12:04:25.672Z,24.45
2019-02-25T12:05:26.902Z,24.51
2019-02-25T12:06:28.019Z,24.51
2019-02-25T12:07:29.169Z,24.54
2019-02-25T12:08:30.293Z,24.55
2019-02-25T12:09:31.415Z,24.55
2019-02-25T12:10:32.634Z,24.51
2019-02-25T12:11:33.747Z,24.52
2019-02-25T12:12:34.878Z,24.52
2019-02-25T12:13:35.999Z,24.50
2019-02-25T12:14:37.124Z,24.49
2019-02-25T12:15:38.358Z,24.53
2019-02-25T12:16:39.575Z,24.50
2019-02-25T12:17:40.892Z,24.47
2019-02-25T12:18:42.120Z,24.44
2019-02-25T12:19:43.233Z,24.43
2019-02-25T12:20:44.352Z,24.44
2019-02-25T12:21:45.473Z,24.44
2019-02-25T12:22:46.734Z,24.43
2019-02-25T12:23:47.849Z,24.41
2019-02-25T12:24:48.962Z,24.35
2019-02-25T12:25:50.077Z,24.36
2019-02-25T12:26:51.286Z,24.40
2019-02-25T12:27:52.409Z,24.39
2019-02-25T12:28:53.528Z,24.34
2019-02-25T12:29:54.644Z,24.36
2019-02-25T12:30:55.862Z,24.36
2019-02-25T12:31:56.979Z,24.36
2019-02-25T12:32:58.259Z,24.35
2019-02-25T12:33:59.376Z,24.37
2019-02-25T12:35:00.497Z,24.37
2019-02-25T12:36:01.611Z,24.34
2019-02-25T12:37:02.716Z,24.33
2019-02-25T12:38:03.857Z,24.34
2019-02-25T12:39:05.770Z,24.36
2019-02-25T12:40:09.294Z,24.34
2019-02-25T12:41:10.500Z,24.30
2019-02-25T12:42:11.624Z,24.31
2019-02-25T12:43:12.776Z,24.33
2019-02-25T12:44:13.893Z,24.31
2019-02-25T12:45:15.006Z,24.31
2019-02-25T12:46:16.123Z,24.30
2019-02-25T12:47:17.241Z,24.30
2019-02-25T12:48:18.408Z,24.31
2019-02-25T12:49:19.524Z,24.33
2019-02-25T12:50:20.642Z,24.33
2019-02-25T12:51:21.758Z,24.31
2019-02-25T12:52:22.877Z,24.33
2019-02-25T12:53:24.004Z,24.35
2019-02-25T12:54:25.124Z,24.28
2019-02-25T12:55:26.245Z,24.32
2019-02-25T12:56:27.354Z,24.33
2019-02-25T12:57:28.468Z,24.33
2019-02-25T12:58:29.592Z,24.36
2019-02-25T12:59:30.715Z,24.38
2019-02-25T13:00:31.829Z,24.37
2019-02-25T13:01:32.944Z,24.38
2019-02-25T13:02:34.064Z,24.38
2019-02-25T13:03:35.193Z,24.38
2019-02-25T13:04:36.311Z,24.43
2019-02-25T13:05:37.442Z,24.44
2019-02-25T13:06:38.553Z,24.43
2019-02-25T13:07:39.767Z,24.40
2019-02-25T13:08:41.007Z,24.42
2019-02-25T13:09:42.141Z,24.44
2019-02-25T13:10:43.267Z,24.44
2019-02-25T13:11:44.484Z,24.44
2019-02-25T13:12:45.604Z,24.49
2019-02-25T13:13:46.729Z,24.51
2019-02-25T13:14:47.846Z,24.50
2019-02-25T13:15:48.967Z,24.54
2019-02-25T13:16:50.093Z,24.53
2019-02-25T13:17:51.220Z,24.54
2019-02-25T13:18:52.357Z,24.47
2019-02-25T13:19:53.468Z,24.45
2019-02-25T13:20:54.688Z,24.51
2019-02-25T13:21:55.910Z,24.51
2019-02-25T13:22:57.131Z,24.49
2019-02-25T13:23:59.434Z,24.51
2019-02-25T13:25:03.338Z,24.55
2019-02-25T13:26:07.338Z,24.57
2019-02-25T13:27:08.428Z,24.58